sensor_id;sensor_type;location;lat;lon;timestamp;temperature;humidity
24860;DHT22;12936;52.006;4.350;2023-12-07T00:01:06;3.60;99.90
24860;DHT22;12936;52.006;4.350;2023-12-07T00:03:43;3.60;99.90
24860;DHT22;12936;52.006;4.350;2023-12-07T00:06:12;3.50;99.90
24860;DHT22;12936;52.006;4.350;2023-12-07T00:08:40;3.50;99.90
24860;DHT22;12936;52.006;4.350;2023-12-07T00:11:09;3.50;99.90
24860;DHT22;12936;52.006;4.350;2023-12-07T00:13:39;3.50;99.90
24860;DHT22;12936;52.006;4.350;2023-12-07T00:16:07;3.50;99.90
24860;DHT22;12936;52.006;4.350;2023-12-07T00:18:37;3.50;99.90
24860;DHT22;12936;52.006;4.350;2023-12-07T00:21:08;3.50;99.90
24860;DHT22;12936;52.006;4.350;2023-12-07T00:23:37;3.40;99.90
24860;DHT22;12936;52.006;4.350;2023-12-07T00:26:06;3.50;99.90
24860;DHT22;12936;52.006;4.350;2023-12-07T00:28:34;3.50;99.90
24860;DHT22;12936;52.006;4.350;2023-12-07T00:31:03;3.40;99.90
24860;DHT22;12936;52.006;4.350;2023-12-07T00:33:32;3.40;99.90
24860;DHT22;12936;52.006;4.350;2023-12-07T00:36:03;3.40;99.90
24860;DHT22;12936;52.006;4.350;2023-12-07T00:38:34;3.40;99.90
24860;DHT22;12936;52.006;4.350;2023-12-07T00:41:04;3.40;99.90
24860;DHT22;12936;52.006;4.350;2023-12-07T00:43:34;3.40;99.90
24860;DHT22;12936;52.006;4.350;2023-12-07T00:46:03;3.30;99.90
24860;DHT22;12936;52.006;4.350;2023-12-07T00:48:32;3.40;99.90
24860;DHT22;12936;52.006;4.350;2023-12-07T00:51:03;3.40;99.90
24860;DHT22;12936;52.006;4.350;2023-12-07T00:53:35;3.30;99.90
24860;DHT22;12936;52.006;4.350;2023-12-07T00:56:07;3.30;99.90
24860;DHT22;12936;52.006;4.350;2023-12-07T00:58:36;3.30;99.90
24860;DHT22;12936;52.006;4.350;2023-12-07T01:01:11;3.30;99.90
24860;DHT22;12936;52.006;4.350;2023-12-07T01:03:39;3.30;99.90
24860;DHT22;12936;52.006;4.350;2023-12-07T01:06:16;3.30;99.90
24860;DHT22;12936;52.006;4.350;2023-12-07T01:08:50;3.30;99.90
24860;DHT22;12936;52.006;4.350;2023-12-07T01:11:39;3.30;99.90
24860;DHT22;12936;52.006;4.350;2023-12-07T01:14:18;3.30;99.90
24860;DHT22;12936;52.006;4.350;2023-12-07T01:16:48;3.30;99.90
24860;DHT22;12936;52.006;4.350;2023-12-07T01:19:16;3.30;99.90
24860;DHT22;12936;52.006;4.350;2023-12-07T01:21:44;3.30;99.90
24860;DHT22;12936;52.006;4.350;2023-12-07T01:24:14;3.30;99.90
24860;DHT22;12936;52.006;4.350;2023-12-07T01:27:23;3.30;99.90
24860;DHT22;12936;52.006;4.350;2023-12-07T01:29:53;3.30;99.90
24860;DHT22;12936;52.006;4.350;2023-12-07T01:32:22;3.20;99.90
24860;DHT22;12936;52.006;4.350;2023-12-07T01:34:55;3.30;99.90
24860;DHT22;12936;52.006;4.350;2023-12-07T01:37:24;3.30;99.90
24860;DHT22;12936;52.006;4.350;2023-12-07T01:39:56;3.30;99.90
24860;DHT22;12936;52.006;4.350;2023-12-07T01:42:26;3.40;99.90
24860;DHT22;12936;52.006;4.350;2023-12-07T01:44:57;3.30;99.90
24860;DHT22;12936;52.006;4.350;2023-12-07T01:47:35;3.30;99.90
24860;DHT22;12936;52.006;4.350;2023-12-07T01:50:05;3.30;99.90
24860;DHT22;12936;52.006;4.350;2023-12-07T01:52:35;3.30;99.90
24860;DHT22;12936;52.006;4.350;2023-12-07T01:55:09;3.30;99.90
24860;DHT22;12936;52.006;4.350;2023-12-07T01:57:40;3.40;99.90
24860;DHT22;12936;52.006;4.350;2023-12-07T02:00:12;3.40;99.90
24860;DHT22;12936;52.006;4.350;2023-12-07T02:02:44;3.40;99.90
24860;DHT22;12936;52.006;4.350;2023-12-07T02:05:16;3.40;99.90
24860;DHT22;12936;52.006;4.350;2023-12-07T02:07:45;3.40;99.90
24860;DHT22;12936;52.006;4.350;2023-12-07T02:10:16;3.40;99.90
24860;DHT22;12936;52.006;4.350;2023-12-07T02:12:46;3.40;99.90
24860;DHT22;12936;52.006;4.350;2023-12-07T02:15:19;3.40;99.90
24860;DHT22;12936;52.006;4.350;2023-12-07T02:17:55;3.50;99.90
24860;DHT22;12936;52.006;4.350;2023-12-07T02:20:29;3.40;99.90
24860;DHT22;12936;52.006;4.350;2023-12-07T02:23:01;3.40;99.90
24860;DHT22;12936;52.006;4.350;2023-12-07T02:25:40;3.40;99.90
24860;DHT22;12936;52.006;4.350;2023-12-07T02:28:14;3.40;99.90
24860;DHT22;12936;52.006;4.350;2023-12-07T02:30:49;3.50;99.90
24860;DHT22;12936;52.006;4.350;2023-12-07T02:33:22;3.40;99.90
24860;DHT22;12936;52.006;4.350;2023-12-07T02:35:56;3.40;99.90
24860;DHT22;12936;52.006;4.350;2023-12-07T02:38:26;3.40;99.90
24860;DHT22;12936;52.006;4.350;2023-12-07T02:40:57;3.40;99.90
24860;DHT22;12936;52.006;4.350;2023-12-07T02:43:29;3.40;99.90
24860;DHT22;12936;52.006;4.350;2023-12-07T02:46:01;3.40;99.90
24860;DHT22;12936;52.006;4.350;2023-12-07T02:48:34;3.40;99.90
24860;DHT22;12936;52.006;4.350;2023-12-07T02:51:06;3.40;99.90
24860;DHT22;12936;52.006;4.350;2023-12-07T02:53:39;3.30;99.90
24860;DHT22;12936;52.006;4.350;2023-12-07T02:56:10;3.30;99.90
24860;DHT22;12936;52.006;4.350;2023-12-07T02:58:41;3.30;99.90
24860;DHT22;12936;52.006;4.350;2023-12-07T03:01:11;3.30;99.90
24860;DHT22;12936;52.006;4.350;2023-12-07T03:03:40;3.30;99.90
24860;DHT22;12936;52.006;4.350;2023-12-07T03:06:13;3.30;99.90
24860;DHT22;12936;52.006;4.350;2023-12-07T03:08:46;3.30;99.90
24860;DHT22;12936;52.006;4.350;2023-12-07T03:11:15;3.30;99.90
24860;DHT22;12936;52.006;4.350;2023-12-07T03:13:46;3.30;99.90
24860;DHT22;12936;52.006;4.350;2023-12-07T03:16:18;3.20;99.90
24860;DHT22;12936;52.006;4.350;2023-12-07T03:18:49;3.20;99.90
24860;DHT22;12936;52.006;4.350;2023-12-07T03:21:18;3.20;99.90
24860;DHT22;12936;52.006;4.350;2023-12-07T03:23:48;3.20;99.90
24860;DHT22;12936;52.006;4.350;2023-12-07T03:26:17;3.30;99.90
24860;DHT22;12936;52.006;4.350;2023-12-07T03:29:09;3.30;99.90
24860;DHT22;12936;52.006;4.350;2023-12-07T03:31:40;3.30;99.90
24860;DHT22;12936;52.006;4.350;2023-12-07T03:34:09;3.30;99.90
24860;DHT22;12936;52.006;4.350;2023-12-07T03:36:38;3.30;99.90
24860;DHT22;12936;52.006;4.350;2023-12-07T03:39:08;3.30;99.90
24860;DHT22;12936;52.006;4.350;2023-12-07T03:41:39;3.30;99.90
24860;DHT22;12936;52.006;4.350;2023-12-07T03:44:12;3.30;99.90
24860;DHT22;12936;52.006;4.350;2023-12-07T03:46:40;3.30;99.90
24860;DHT22;12936;52.006;4.350;2023-12-07T03:49:32;3.40;99.90
24860;DHT22;12936;52.006;4.350;2023-12-07T03:52:07;3.30;99.90
24860;DHT22;12936;52.006;4.350;2023-12-07T03:54:38;3.30;99.90
24860;DHT22;12936;52.006;4.350;2023-12-07T03:57:07;3.30;99.90
24860;DHT22;12936;52.006;4.350;2023-12-07T03:59:37;3.40;99.90
24860;DHT22;12936;52.006;4.350;2023-12-07T04:02:28;3.30;99.90
24860;DHT22;12936;52.006;4.350;2023-12-07T04:04:59;3.30;99.90
24860;DHT22;12936;52.006;4.350;2023-12-07T04:07:33;3.40;99.90
24860;DHT22;12936;52.006;4.350;2023-12-07T04:10:03;3.40;99.90
24860;DHT22;12936;52.006;4.350;2023-12-07T04:12:54;3.40;99.90
24860;DHT22;12936;52.006;4.350;2023-12-07T04:15:24;3.30;99.90
24860;DHT22;12936;52.006;4.350;2023-12-07T04:17:53;3.30;99.90
24860;DHT22;12936;52.006;4.350;2023-12-07T04:20:26;3.40;99.90
24860;DHT22;12936;52.006;4.350;2023-12-07T04:22:56;3.30;99.90
24860;DHT22;12936;52.006;4.350;2023-12-07T04:25:26;3.30;99.90
24860;DHT22;12936;52.006;4.350;2023-12-07T04:27:54;3.30;99.90
24860;DHT22;12936;52.006;4.350;2023-12-07T04:30:27;3.40;99.90
24860;DHT22;12936;52.006;4.350;2023-12-07T04:32:57;3.40;99.90
24860;DHT22;12936;52.006;4.350;2023-12-07T04:35:30;3.30;99.90
24860;DHT22;12936;52.006;4.350;2023-12-07T04:38:16;3.40;99.90
24860;DHT22;12936;52.006;4.350;2023-12-07T04:40:46;3.40;99.90
24860;DHT22;12936;52.006;4.350;2023-12-07T04:43:17;3.40;99.90
24860;DHT22;12936;52.006;4.350;2023-12-07T04:45:49;3.30;99.90
24860;DHT22;12936;52.006;4.350;2023-12-07T04:48:40;3.40;99.90
24860;DHT22;12936;52.006;4.350;2023-12-07T04:51:09;3.30;99.90
24860;DHT22;12936;52.006;4.350;2023-12-07T04:53:42;3.30;99.90
24860;DHT22;12936;52.006;4.350;2023-12-07T04:56:10;3.30;99.90
24860;DHT22;12936;52.006;4.350;2023-12-07T04:58:39;3.30;99.90
24860;DHT22;12936;52.006;4.350;2023-12-07T05:01:10;3.30;99.90
24860;DHT22;12936;52.006;4.350;2023-12-07T05:03:38;3.30;99.90
24860;DHT22;12936;52.006;4.350;2023-12-07T05:06:08;3.30;99.90
24860;DHT22;12936;52.006;4.350;2023-12-07T05:08:39;3.30;99.90
24860;DHT22;12936;52.006;4.350;2023-12-07T05:11:10;3.30;99.90
24860;DHT22;12936;52.006;4.350;2023-12-07T05:14:00;3.30;99.90
24860;DHT22;12936;52.006;4.350;2023-12-07T05:16:50;3.30;99.90
24860;DHT22;12936;52.006;4.350;2023-12-07T05:19:20;3.30;99.90
24860;DHT22;12936;52.006;4.350;2023-12-07T05:22:10;3.30;99.90
24860;DHT22;12936;52.006;4.350;2023-12-07T05:24:40;3.20;99.90
24860;DHT22;12936;52.006;4.350;2023-12-07T05:27:31;3.30;99.90
24860;DHT22;12936;52.006;4.350;2023-12-07T05:30:01;3.20;99.90
24860;DHT22;12936;52.006;4.350;2023-12-07T05:32:32;3.30;99.90
24860;DHT22;12936;52.006;4.350;2023-12-07T05:35:00;3.30;99.90
24860;DHT22;12936;52.006;4.350;2023-12-07T05:37:29;3.30;99.90
24860;DHT22;12936;52.006;4.350;2023-12-07T05:39:57;3.30;99.90
24860;DHT22;12936;52.006;4.350;2023-12-07T05:42:25;3.30;99.90
24860;DHT22;12936;52.006;4.350;2023-12-07T05:44:53;3.40;99.90
24860;DHT22;12936;52.006;4.350;2023-12-07T05:47:21;3.30;99.90
24860;DHT22;12936;52.006;4.350;2023-12-07T05:49:51;3.30;99.90
24860;DHT22;12936;52.006;4.350;2023-12-07T05:52:20;3.30;99.90
24860;DHT22;12936;52.006;4.350;2023-12-07T05:54:48;3.30;99.90
24860;DHT22;12936;52.006;4.350;2023-12-07T05:57:17;3.30;99.90
24860;DHT22;12936;52.006;4.350;2023-12-07T05:59:45;3.30;99.90
24860;DHT22;12936;52.006;4.350;2023-12-07T06:02:13;3.30;99.90
24860;DHT22;12936;52.006;4.350;2023-12-07T06:04:41;3.30;99.90
24860;DHT22;12936;52.006;4.350;2023-12-07T06:07:11;3.30;99.90
24860;DHT22;12936;52.006;4.350;2023-12-07T06:09:39;3.30;99.90
24860;DHT22;12936;52.006;4.350;2023-12-07T06:12:08;3.30;99.90
24860;DHT22;12936;52.006;4.350;2023-12-07T06:14:36;3.30;99.90
24860;DHT22;12936;52.006;4.350;2023-12-07T06:17:04;3.30;99.90
24860;DHT22;12936;52.006;4.350;2023-12-07T06:19:34;3.30;99.90
24860;DHT22;12936;52.006;4.350;2023-12-07T06:22:03;3.30;99.90
24860;DHT22;12936;52.006;4.350;2023-12-07T06:24:34;3.30;99.90
24860;DHT22;12936;52.006;4.350;2023-12-07T06:27:02;3.20;99.90
24860;DHT22;12936;52.006;4.350;2023-12-07T06:29:31;3.30;99.90
24860;DHT22;12936;52.006;4.350;2023-12-07T06:31:59;3.30;99.90
24860;DHT22;12936;52.006;4.350;2023-12-07T06:34:27;3.30;99.90
24860;DHT22;12936;52.006;4.350;2023-12-07T06:36:56;3.20;99.90
24860;DHT22;12936;52.006;4.350;2023-12-07T06:39:24;3.20;99.90
24860;DHT22;12936;52.006;4.350;2023-12-07T06:41:54;3.10;99.90
24860;DHT22;12936;52.006;4.350;2023-12-07T06:44:22;3.20;99.90
24860;DHT22;12936;52.006;4.350;2023-12-07T06:46:51;3.20;99.90
24860;DHT22;12936;52.006;4.350;2023-12-07T06:49:19;3.20;99.90
24860;DHT22;12936;52.006;4.350;2023-12-07T06:51:47;3.20;99.90
24860;DHT22;12936;52.006;4.350;2023-12-07T06:54:15;3.10;99.90
24860;DHT22;12936;52.006;4.350;2023-12-07T06:56:43;3.10;99.90
24860;DHT22;12936;52.006;4.350;2023-12-07T06:59:14;3.10;99.90
24860;DHT22;12936;52.006;4.350;2023-12-07T07:01:42;3.10;99.90
24860;DHT22;12936;52.006;4.350;2023-12-07T07:04:10;3.10;99.90
24860;DHT22;12936;52.006;4.350;2023-12-07T07:06:40;3.10;99.90
24860;DHT22;12936;52.006;4.350;2023-12-07T07:09:09;3.00;99.90
24860;DHT22;12936;52.006;4.350;2023-12-07T07:11:37;3.10;99.90
24860;DHT22;12936;52.006;4.350;2023-12-07T07:14:05;3.10;99.90
24860;DHT22;12936;52.006;4.350;2023-12-07T07:16:34;3.10;99.90
24860;DHT22;12936;52.006;4.350;2023-12-07T07:19:02;3.10;99.90
24860;DHT22;12936;52.006;4.350;2023-12-07T07:21:31;3.10;99.90
24860;DHT22;12936;52.006;4.350;2023-12-07T07:23:59;3.10;99.90
24860;DHT22;12936;52.006;4.350;2023-12-07T07:26:27;3.10;99.90
24860;DHT22;12936;52.006;4.350;2023-12-07T07:28:56;3.10;99.90
24860;DHT22;12936;52.006;4.350;2023-12-07T07:31:24;3.10;99.90
24860;DHT22;12936;52.006;4.350;2023-12-07T07:33:54;3.10;99.90
24860;DHT22;12936;52.006;4.350;2023-12-07T07:36:27;3.20;99.90
24860;DHT22;12936;52.006;4.350;2023-12-07T07:38:55;3.20;99.90
24860;DHT22;12936;52.006;4.350;2023-12-07T07:41:23;3.20;99.90
24860;DHT22;12936;52.006;4.350;2023-12-07T07:43:51;3.20;99.90
24860;DHT22;12936;52.006;4.350;2023-12-07T07:46:20;3.20;99.90
24860;DHT22;12936;52.006;4.350;2023-12-07T07:48:49;3.20;99.90
24860;DHT22;12936;52.006;4.350;2023-12-07T07:51:18;3.20;99.90
24860;DHT22;12936;52.006;4.350;2023-12-07T07:53:47;3.20;99.90
24860;DHT22;12936;52.006;4.350;2023-12-07T07:56:15;3.30;99.90
24860;DHT22;12936;52.006;4.350;2023-12-07T07:58:43;3.30;99.90
24860;DHT22;12936;52.006;4.350;2023-12-07T08:01:11;3.30;99.90
24860;DHT22;12936;52.006;4.350;2023-12-07T08:03:42;3.30;99.90
24860;DHT22;12936;52.006;4.350;2023-12-07T08:06:10;3.40;99.90
24860;DHT22;12936;52.006;4.350;2023-12-07T08:08:40;3.40;99.90
24860;DHT22;12936;52.006;4.350;2023-12-07T08:11:08;3.40;99.90
24860;DHT22;12936;52.006;4.350;2023-12-07T08:13:37;3.40;99.90
24860;DHT22;12936;52.006;4.350;2023-12-07T08:16:07;3.40;99.90
24860;DHT22;12936;52.006;4.350;2023-12-07T08:18:36;3.40;99.90
24860;DHT22;12936;52.006;4.350;2023-12-07T08:21:05;3.40;99.90
24860;DHT22;12936;52.006;4.350;2023-12-07T08:23:35;3.40;99.90
24860;DHT22;12936;52.006;4.350;2023-12-07T08:26:05;3.40;99.90
24860;DHT22;12936;52.006;4.350;2023-12-07T08:28:33;3.50;99.90
24860;DHT22;12936;52.006;4.350;2023-12-07T08:31:01;3.50;99.90
24860;DHT22;12936;52.006;4.350;2023-12-07T08:33:29;3.50;99.90
24860;DHT22;12936;52.006;4.350;2023-12-07T08:35:58;3.50;99.90
24860;DHT22;12936;52.006;4.350;2023-12-07T08:38:27;3.50;99.90
24860;DHT22;12936;52.006;4.350;2023-12-07T08:40:55;3.60;99.90
24860;DHT22;12936;52.006;4.350;2023-12-07T08:43:25;3.50;99.90
24860;DHT22;12936;52.006;4.350;2023-12-07T08:45:55;3.60;99.90
24860;DHT22;12936;52.006;4.350;2023-12-07T08:48:27;3.60;99.90
24860;DHT22;12936;52.006;4.350;2023-12-07T08:50:58;3.60;99.90
24860;DHT22;12936;52.006;4.350;2023-12-07T08:53:26;3.60;99.90
24860;DHT22;12936;52.006;4.350;2023-12-07T08:55:55;3.70;99.90
24860;DHT22;12936;52.006;4.350;2023-12-07T08:58:24;3.70;99.90
24860;DHT22;12936;52.006;4.350;2023-12-07T09:00:52;3.70;99.90
24860;DHT22;12936;52.006;4.350;2023-12-07T09:03:20;3.70;99.90
24860;DHT22;12936;52.006;4.350;2023-12-07T09:05:52;3.70;99.90
24860;DHT22;12936;52.006;4.350;2023-12-07T09:08:20;3.70;99.90
24860;DHT22;12936;52.006;4.350;2023-12-07T09:10:49;3.70;99.90
24860;DHT22;12936;52.006;4.350;2023-12-07T09:13:18;3.70;99.90
24860;DHT22;12936;52.006;4.350;2023-12-07T09:15:48;3.70;99.90
24860;DHT22;12936;52.006;4.350;2023-12-07T09:18:16;3.80;99.90
24860;DHT22;12936;52.006;4.350;2023-12-07T09:20:44;3.80;99.90
24860;DHT22;12936;52.006;4.350;2023-12-07T09:23:13;3.80;99.90
24860;DHT22;12936;52.006;4.350;2023-12-07T09:25:43;3.80;99.90
24860;DHT22;12936;52.006;4.350;2023-12-07T09:28:11;3.80;99.90
24860;DHT22;12936;52.006;4.350;2023-12-07T09:30:40;3.90;99.90
24860;DHT22;12936;52.006;4.350;2023-12-07T09:33:09;3.80;99.90
24860;DHT22;12936;52.006;4.350;2023-12-07T09:35:39;3.90;99.90
24860;DHT22;12936;52.006;4.350;2023-12-07T09:38:07;3.90;99.90
24860;DHT22;12936;52.006;4.350;2023-12-07T09:40:36;3.90;99.90
24860;DHT22;12936;52.006;4.350;2023-12-07T09:43:04;3.90;99.90
24860;DHT22;12936;52.006;4.350;2023-12-07T09:45:33;3.90;99.90
24860;DHT22;12936;52.006;4.350;2023-12-07T09:48:02;4.00;99.90
24860;DHT22;12936;52.006;4.350;2023-12-07T09:50:33;4.00;99.90
24860;DHT22;12936;52.006;4.350;2023-12-07T09:53:01;4.00;99.90
24860;DHT22;12936;52.006;4.350;2023-12-07T09:55:35;4.00;99.90
24860;DHT22;12936;52.006;4.350;2023-12-07T09:58:05;4.10;99.90
24860;DHT22;12936;52.006;4.350;2023-12-07T10:00:35;4.00;99.90
24860;DHT22;12936;52.006;4.350;2023-12-07T10:03:05;4.10;99.90
24860;DHT22;12936;52.006;4.350;2023-12-07T10:05:56;4.20;99.90
24860;DHT22;12936;52.006;4.350;2023-12-07T10:08:27;4.20;99.90
24860;DHT22;12936;52.006;4.350;2023-12-07T10:11:06;4.20;99.90
24860;DHT22;12936;52.006;4.350;2023-12-07T10:13:35;4.30;99.90
24860;DHT22;12936;52.006;4.350;2023-12-07T10:16:08;4.20;99.90
24860;DHT22;12936;52.006;4.350;2023-12-07T10:18:37;4.30;99.90
24860;DHT22;12936;52.006;4.350;2023-12-07T10:21:12;4.30;99.90
24860;DHT22;12936;52.006;4.350;2023-12-07T10:23:42;4.50;99.90
24860;DHT22;12936;52.006;4.350;2023-12-07T10:26:16;4.40;99.90
24860;DHT22;12936;52.006;4.350;2023-12-07T10:28:46;4.50;99.90
24860;DHT22;12936;52.006;4.350;2023-12-07T10:31:20;4.50;99.90
24860;DHT22;12936;52.006;4.350;2023-12-07T10:33:49;4.50;99.90
24860;DHT22;12936;52.006;4.350;2023-12-07T10:36:19;4.50;99.90
24860;DHT22;12936;52.006;4.350;2023-12-07T10:38:48;4.60;99.90
24860;DHT22;12936;52.006;4.350;2023-12-07T10:41:19;4.60;99.90
24860;DHT22;12936;52.006;4.350;2023-12-07T10:43:49;4.70;99.90
24860;DHT22;12936;52.006;4.350;2023-12-07T10:46:20;4.70;99.90
24860;DHT22;12936;52.006;4.350;2023-12-07T10:48:49;4.70;99.90
24860;DHT22;12936;52.006;4.350;2023-12-07T10:51:29;4.80;99.90
24860;DHT22;12936;52.006;4.350;2023-12-07T10:53:59;4.70;99.90
24860;DHT22;12936;52.006;4.350;2023-12-07T10:56:37;4.80;99.90
24860;DHT22;12936;52.006;4.350;2023-12-07T10:59:09;4.80;99.90
24860;DHT22;12936;52.006;4.350;2023-12-07T11:01:47;4.80;99.90
24860;DHT22;12936;52.006;4.350;2023-12-07T11:04:16;4.80;99.90
24860;DHT22;12936;52.006;4.350;2023-12-07T11:06:49;4.80;99.90
24860;DHT22;12936;52.006;4.350;2023-12-07T11:09:22;4.80;99.90
24860;DHT22;12936;52.006;4.350;2023-12-07T11:11:59;4.80;99.90
24860;DHT22;12936;52.006;4.350;2023-12-07T11:14:29;4.80;99.90
24860;DHT22;12936;52.006;4.350;2023-12-07T11:16:57;4.90;99.90
24860;DHT22;12936;52.006;4.350;2023-12-07T11:19:48;4.80;99.90
24860;DHT22;12936;52.006;4.350;2023-12-07T11:22:18;4.80;99.90
24860;DHT22;12936;52.006;4.350;2023-12-07T11:24:54;4.90;99.90
24860;DHT22;12936;52.006;4.350;2023-12-07T11:27:24;4.80;99.90
24860;DHT22;12936;52.006;4.350;2023-12-07T11:29:53;4.90;99.90
24860;DHT22;12936;52.006;4.350;2023-12-07T11:32:21;4.90;99.90
24860;DHT22;12936;52.006;4.350;2023-12-07T11:35:01;4.90;99.90
24860;DHT22;12936;52.006;4.350;2023-12-07T11:38:02;5.00;99.90
24860;DHT22;12936;52.006;4.350;2023-12-07T11:40:35;5.00;99.90
24860;DHT22;12936;52.006;4.350;2023-12-07T11:43:04;5.00;99.90
24860;DHT22;12936;52.006;4.350;2023-12-07T11:45:37;5.00;99.90
24860;DHT22;12936;52.006;4.350;2023-12-07T11:48:09;5.00;99.90
24860;DHT22;12936;52.006;4.350;2023-12-07T11:50:57;5.10;99.90
24860;DHT22;12936;52.006;4.350;2023-12-07T11:53:28;5.10;99.90
24860;DHT22;12936;52.006;4.350;2023-12-07T11:55:58;5.10;99.90
24860;DHT22;12936;52.006;4.350;2023-12-07T11:58:27;5.10;99.90
24860;DHT22;12936;52.006;4.350;2023-12-07T12:00:56;5.00;99.90
24860;DHT22;12936;52.006;4.350;2023-12-07T12:03:24;5.10;99.90
24860;DHT22;12936;52.006;4.350;2023-12-07T12:05:53;5.10;99.90
24860;DHT22;12936;52.006;4.350;2023-12-07T12:08:23;5.20;99.90
24860;DHT22;12936;52.006;4.350;2023-12-07T12:10:55;5.10;99.90
24860;DHT22;12936;52.006;4.350;2023-12-07T12:13:27;5.20;99.90
24860;DHT22;12936;52.006;4.350;2023-12-07T12:15:56;5.20;99.90
24860;DHT22;12936;52.006;4.350;2023-12-07T12:18:30;5.20;99.90
24860;DHT22;12936;52.006;4.350;2023-12-07T12:21:00;5.30;99.90
24860;DHT22;12936;52.006;4.350;2023-12-07T12:23:28;5.30;99.90
24860;DHT22;12936;52.006;4.350;2023-12-07T12:25:58;5.20;99.90
24860;DHT22;12936;52.006;4.350;2023-12-07T12:28:26;5.30;99.90
24860;DHT22;12936;52.006;4.350;2023-12-07T12:30:55;5.30;99.90
24860;DHT22;12936;52.006;4.350;2023-12-07T12:33:23;5.30;99.90
24860;DHT22;12936;52.006;4.350;2023-12-07T12:36:01;5.30;99.90
24860;DHT22;12936;52.006;4.350;2023-12-07T12:38:30;5.40;99.90
24860;DHT22;12936;52.006;4.350;2023-12-07T12:41:10;5.40;99.90
24860;DHT22;12936;52.006;4.350;2023-12-07T12:43:42;5.40;99.90
24860;DHT22;12936;52.006;4.350;2023-12-07T12:46:13;5.40;99.90
24860;DHT22;12936;52.006;4.350;2023-12-07T12:48:53;5.40;99.90
24860;DHT22;12936;52.006;4.350;2023-12-07T12:51:24;5.50;99.90
24860;DHT22;12936;52.006;4.350;2023-12-07T12:53:54;5.50;99.90
24860;DHT22;12936;52.006;4.350;2023-12-07T12:56:24;5.60;99.90
24860;DHT22;12936;52.006;4.350;2023-12-07T12:58:53;5.50;99.90
24860;DHT22;12936;52.006;4.350;2023-12-07T13:01:29;5.60;99.90
24860;DHT22;12936;52.006;4.350;2023-12-07T13:03:58;5.60;99.90
24860;DHT22;12936;52.006;4.350;2023-12-07T13:06:26;5.60;99.90
24860;DHT22;12936;52.006;4.350;2023-12-07T13:08:55;5.70;99.90
24860;DHT22;12936;52.006;4.350;2023-12-07T13:11:26;5.60;99.90
24860;DHT22;12936;52.006;4.350;2023-12-07T13:13:54;5.70;99.90
24860;DHT22;12936;52.006;4.350;2023-12-07T13:16:22;5.70;99.90
24860;DHT22;12936;52.006;4.350;2023-12-07T13:18:50;5.70;99.90
24860;DHT22;12936;52.006;4.350;2023-12-07T13:21:20;5.70;99.90
24860;DHT22;12936;52.006;4.350;2023-12-07T13:23:49;5.70;99.90
24860;DHT22;12936;52.006;4.350;2023-12-07T13:26:19;5.70;99.90
24860;DHT22;12936;52.006;4.350;2023-12-07T13:28:48;5.70;99.90
24860;DHT22;12936;52.006;4.350;2023-12-07T13:31:16;5.70;99.90
24860;DHT22;12936;52.006;4.350;2023-12-07T13:33:45;5.70;99.90
24860;DHT22;12936;52.006;4.350;2023-12-07T13:36:22;5.70;99.90
24860;DHT22;12936;52.006;4.350;2023-12-07T13:38:53;5.70;99.90
24860;DHT22;12936;52.006;4.350;2023-12-07T13:41:22;5.60;99.90
24860;DHT22;12936;52.006;4.350;2023-12-07T13:43:52;5.70;99.90
24860;DHT22;12936;52.006;4.350;2023-12-07T13:46:20;5.70;99.90
24860;DHT22;12936;52.006;4.350;2023-12-07T13:48:48;5.60;99.90
24860;DHT22;12936;52.006;4.350;2023-12-07T13:51:17;5.70;99.90
24860;DHT22;12936;52.006;4.350;2023-12-07T13:53:47;5.60;99.90
24860;DHT22;12936;52.006;4.350;2023-12-07T13:56:15;5.60;99.90
24860;DHT22;12936;52.006;4.350;2023-12-07T13:58:43;5.60;99.90
24860;DHT22;12936;52.006;4.350;2023-12-07T14:01:13;5.60;99.90
24860;DHT22;12936;52.006;4.350;2023-12-07T14:06:56;5.60;99.90
24860;DHT22;12936;52.006;4.350;2023-12-07T14:09:44;5.60;99.90
24860;DHT22;12936;52.006;4.350;2023-12-07T14:12:23;5.60;99.90
24860;DHT22;12936;52.006;4.350;2023-12-07T14:14:52;5.60;99.90
24860;DHT22;12936;52.006;4.350;2023-12-07T14:17:23;5.50;99.90
24860;DHT22;12936;52.006;4.350;2023-12-07T14:20:04;5.50;99.90
24860;DHT22;12936;52.006;4.350;2023-12-07T14:22:53;5.40;99.90
24860;DHT22;12936;52.006;4.350;2023-12-07T14:25:22;5.40;99.90
24860;DHT22;12936;52.006;4.350;2023-12-07T14:27:50;5.40;99.90
24860;DHT22;12936;52.006;4.350;2023-12-07T14:30:18;5.40;99.90
24860;DHT22;12936;52.006;4.350;2023-12-07T14:32:47;5.40;99.90
24860;DHT22;12936;52.006;4.350;2023-12-07T14:35:19;5.40;99.90
24860;DHT22;12936;52.006;4.350;2023-12-07T14:37:48;5.40;99.90
24860;DHT22;12936;52.006;4.350;2023-12-07T14:40:17;5.40;99.90
24860;DHT22;12936;52.006;4.350;2023-12-07T14:42:46;5.40;99.90
24860;DHT22;12936;52.006;4.350;2023-12-07T14:45:14;5.40;99.90
24860;DHT22;12936;52.006;4.350;2023-12-07T14:47:43;5.30;99.90
24860;DHT22;12936;52.006;4.350;2023-12-07T14:50:14;5.30;99.90
24860;DHT22;12936;52.006;4.350;2023-12-07T14:52:42;5.20;99.90
24860;DHT22;12936;52.006;4.350;2023-12-07T14:55:10;5.20;99.90
24860;DHT22;12936;52.006;4.350;2023-12-07T14:57:38;5.20;99.90
24860;DHT22;12936;52.006;4.350;2023-12-07T15:00:07;5.20;99.90
24860;DHT22;12936;52.006;4.350;2023-12-07T15:02:36;5.20;99.90
24860;DHT22;12936;52.006;4.350;2023-12-07T15:05:05;5.10;99.90
24860;DHT22;12936;52.006;4.350;2023-12-07T15:07:36;5.10;99.90
24860;DHT22;12936;52.006;4.350;2023-12-07T15:10:07;5.10;99.90
24860;DHT22;12936;52.006;4.350;2023-12-07T15:12:35;5.10;99.90
24860;DHT22;12936;52.006;4.350;2023-12-07T15:15:04;5.00;99.90
24860;DHT22;12936;52.006;4.350;2023-12-07T15:17:33;5.00;99.90
24860;DHT22;12936;52.006;4.350;2023-12-07T15:20:02;4.90;99.90
24860;DHT22;12936;52.006;4.350;2023-12-07T15:22:30;4.90;99.90
24860;DHT22;12936;52.006;4.350;2023-12-07T15:25:00;4.90;99.90
24860;DHT22;12936;52.006;4.350;2023-12-07T15:27:29;4.90;99.90
24860;DHT22;12936;52.006;4.350;2023-12-07T15:29:57;4.90;99.90
24860;DHT22;12936;52.006;4.350;2023-12-07T15:32:25;4.90;99.90
24860;DHT22;12936;52.006;4.350;2023-12-07T15:34:54;4.80;99.90
24860;DHT22;12936;52.006;4.350;2023-12-07T15:37:22;4.70;99.90
24860;DHT22;12936;52.006;4.350;2023-12-07T15:39:51;4.80;99.90
24860;DHT22;12936;52.006;4.350;2023-12-07T15:42:20;4.80;99.90
24860;DHT22;12936;52.006;4.350;2023-12-07T15:44:49;4.80;99.90
24860;DHT22;12936;52.006;4.350;2023-12-07T15:47:17;4.70;99.90
24860;DHT22;12936;52.006;4.350;2023-12-07T15:49:45;4.70;99.90
24860;DHT22;12936;52.006;4.350;2023-12-07T15:52:13;4.70;99.90
24860;DHT22;12936;52.006;4.350;2023-12-07T15:54:42;4.70;99.90
24860;DHT22;12936;52.006;4.350;2023-12-07T15:57:12;4.70;99.90
24860;DHT22;12936;52.006;4.350;2023-12-07T15:59:42;4.70;99.90
24860;DHT22;12936;52.006;4.350;2023-12-07T16:02:10;4.60;99.90
24860;DHT22;12936;52.006;4.350;2023-12-07T16:04:39;4.70;99.90
24860;DHT22;12936;52.006;4.350;2023-12-07T16:07:07;4.60;99.90
24860;DHT22;12936;52.006;4.350;2023-12-07T16:09:37;4.60;99.90
24860;DHT22;12936;52.006;4.350;2023-12-07T16:12:06;4.60;99.90